MET'MAP v2.0
soon released !

Expected late october,
this new version will be
more efficient, smarter,
and hosted on a brand new
server x3 powerfull...
...and still free !


Not compatible ?
Try the mobile version !

LOG IN : | Subscribe | Disclaimer | Who is Orbifly ? |
ICAO code :
Legend : VFR Marginal VFR IFR Intensive IFR Very Intensive IFR
Visi :
Ceiling :
>= 8 km
>= 3000ft
5 to 8 km
1000 to 3000 ft
1500m to 5 km
500 to 1000 ft
800 to 1500m
200 to 500 ft
< 800m
< 200 ft

METAR - EGGD Bristol Int. - 28 Nov 2020 11:13 UTC
Data Sources :     NOAA   


- Airport Elevation : 622 ft
- IATA code : BRS
- No reported NOTAMs.


EGGD - Bristol Int.

Latest METAR recorded : 2015/08/11 07:50 EGGD 110750Z 07006KT CAVOK 13/10 Q1020
TAF TAF EGGD
Valid from the 28 at 06:00 until the 29 at 06:00 UTC


280531Z 2806/2906 07007KT 6000 BKN005
TEMPO 2806/2811 2000 RADZ
PROB40
TEMPO 2806/2818 0300 FG BKN000
BECMG 2814/2817 3000 BR
TEMPO 2818/2902 0300 FG BKN001
BECMG 2902/2905 0300 FG BKN000

Source NOAA
ATIS : +44 1275 473 666


MET'MAP, your aeronautical weather chart ! - Copyright ORBIFLY December 2007

Programming & Development : Alexandra Zaïnal
Co-Developer : Marc-Olivier Méhu
Technical & hardware support : Manuel Goepfert
Concept & Financing : Baudouin d'Aumeries